Palm Desert, CA (92211)

5:28 AM PDT on September 21, 2014 (GMT -0700)
Palm Desert Country Club | Change Station
CLOSE
Current Station
Personal Weather Station
Location: Palm Desert, CA
Elevation: 150 ft
Nearby Weather Stations

Elev 150 ft 33.74 °N, 116.31 °W | Updated 8 minutes ago

Clear
Clear
74.3 °F
Feels Like 77 °F
N
0.0
Wind Variable Wind from NW

Today
High -- | Low -- °F
--% Chance of Precip.
Yesterday
High -- | Low -- °F
Precip. -- in
6:32 AM 6:43 PM
Waning Crescent, 7% visible
Pressure 29.83 in
Visibility 10.0 miles
Clouds Clear
Heat Index 77 °F
Dew Point 58 °F
Humidity 57%
Rainfall 0.00 in
Snow Depth 1 in , 0 in , 3 in
UV 0.0 out of 12
Pollen 5.60 out of 12
Ozone Good
Flu Activity Not available.
METAR KPSP 211153Z AUTO 13005KT 10SM CLR 24/13 A2983 RMK AO2 SLP099 T02440128 10294 20244 53005 TSNO

More Conditions Fewer Conditions

Pressure 29.83 in
Visibility 10.0 miles
Clouds Clear
Heat Index 77 °F
Dew Point 58 °F
Humidity 57%
Rainfall 0.00 in
Snow Depth 1 in , 0 in , 3 in
UV 0.0 out of 12
Pollen 5.60 out of 12
Ozone Good
Flu Activity Not available.
METAR KPSP 211153Z AUTO 13005KT 10SM CLR 24/13 A2983 RMK AO2 SLP099 T02440128 10294 20244 53005 TSNO

More Conditions Fewer Conditions

10-Day Weather Forecast

Almanac

Astronomy

Sep. 21, 2014 Rise Set
Actual Time 6:32 AM PDT 6:43 PM PDT
Civil Twilight 6:07 AM PDT 7:08 PM PDT
Nautical Twilight 5:38 AM PDT 7:37 PM PDT
Astronomical Twilight 5:09 AM PDT 8:06 PM PDT
Moon 4:15 AM PDT 5:17 PM PDT
Length of Visible Light 13h 00m
Length of Day
12h 10m
Tomorrow will be 2m 5s shorter.
Waning Crescent, 7% of the Moon is Illuminated
Today
Waning Crescent
Sep 24
New
Oct 1
First Quarter
Oct 8
Full
Oct 15
Last Quarter

Today's Extremes

State Highs State Lows

Community

WunderPhotos

Upload Photos

1,755,126 photos uploaded!

Nearby

Air Quality

  Air Quality AQ Index Pollutant
Yesterday Good
OZONE
Yesterday Good
PM10
Current Good
OZONE
Sunday Moderate
OZONE
Sunday Good
PM10
Sunday Good
CO
Sunday Good
NO2

Snow Depth

Station Depth Elevation
Burnside Lake 1 in 8139 ft
Forestdale Creek 0 in 8029 ft
CSS Lab 3 in 6900 ft
Rubicon #2 0 in 7500 ft
Sonora Pass 0 in 8800 ft

Earthquake Activity

City Distance Mag. Time & Date
Aguanga, California 32 miles 2.5 1:38 AM PDT
2014-09-19
Minimum magnitude displayed is 2.5.

Coastal Water Temperatures

Place Temperature
No Stations Reporting

Nearby Weather Stations